Time;durP1;ratioP1;P1;durP2;ratioP2;P2;SDS_P1;SDS_P2;PMS_P1;PMS_P2;Temp;Humidity;BMP_temperature;BMP_pressure;BME280_temperature;BME280_humidity;BME280_pressure;Samples;Min_cycle;Max_cycle;Signal;HPM_P1;HPM_P2
2024/01/02 00:02:26;;;;;;;9.98;3.80;;;;;;;;;;4760166;30;20047;-95
2024/01/02 00:04:54;;;;;;;7.78;3.53;;;;;;;;;;4759795;30;20091;-96
2024/01/02 00:07:27;;;;;;;7.13;3.42;;;;;;;;;;4747189;30;20051;-94
2024/01/02 00:09:56;;;;;;;7.80;3.50;;;;;;;;;;4763352;30;20059;-91
2024/01/02 00:12:23;;;;;;;10.75;3.72;;;;;;;;;;4745073;30;20055;-92
2024/01/02 00:15:00;;;;;;;7.50;3.85;;;;;;;;;;4758501;30;20087;-96
2024/01/02 00:17:26;;;;;;;13.60;4.53;;;;;;;;;;4746807;30;20067;-94
2024/01/02 00:20:06;;;;;;;14.38;4.38;;;;;;;;;;4749047;30;20090;-93
2024/01/02 00:22:33;;;;;;;7.88;3.38;;;;;;;;;;4741600;30;20498;-95
2024/01/02 00:25:03;;;;;;;8.80;3.53;;;;;;;;;;4742101;30;20471;-95
2024/01/02 00:27:29;;;;;;;9.43;3.45;;;;;;;;;;4743254;30;20116;-95
2024/01/02 00:30:01;;;;;;;16.85;4.80;;;;;;;;;;4729041;30;20051;-95
2024/01/02 00:32:33;;;;;;;9.80;3.78;;;;;;;;;;4744501;30;20081;-94
2024/01/02 00:35:00;;;;;;;9.02;4.45;;;;;;;;;;4747846;30;20063;-95
2024/01/02 00:37:27;;;;;;;12.52;3.88;;;;;;;;;;4749055;30;20051;-93
2024/01/02 00:39:53;;;;;;;4.43;2.72;;;;;;;;;;4748664;30;20054;-95
2024/01/02 00:42:19;;;;;;;10.70;3.75;;;;;;;;;;4741565;30;20093;-94
2024/01/02 00:44:46;;;;;;;5.30;2.92;;;;;;;;;;4745987;30;20056;-92
2024/01/02 00:47:12;;;;;;;6.28;3.15;;;;;;;;;;4745325;30;20055;-93
2024/01/02 00:49:39;;;;;;;7.28;3.15;;;;;;;;;;4744274;30;20086;-93
2024/01/02 00:52:05;;;;;;;7.00;3.60;;;;;;;;;;4747709;30;20044;-96
2024/01/02 00:54:31;;;;;;;5.82;3.10;;;;;;;;;;4740464;30;20112;-95
2024/01/02 00:56:57;;;;;;;9.32;3.55;;;;;;;;;;4746519;30;20058;-95
2024/01/02 00:59:23;;;;;;;6.32;3.00;;;;;;;;;;4740530;30;20052;-95
2024/01/02 01:01:49;;;;;;;7.90;2.97;;;;;;;;;;4728103;30;20426;-94
2024/01/02 01:04:15;;;;;;;7.70;3.08;;;;;;;;;;4740918;30;20162;-94
2024/01/02 01:06:42;;;;;;;6.97;3.15;;;;;;;;;;4741994;30;20059;-96
2024/01/02 01:09:08;;;;;;;10.20;3.35;;;;;;;;;;4739790;30;20054;-94
2024/01/02 01:11:34;;;;;;;11.13;3.53;;;;;;;;;;4753351;30;20509;-94
2024/01/02 01:14:00;;;;;;;9.75;2.97;;;;;;;;;;4757138;30;20059;-92
2024/01/02 01:16:26;;;;;;;16.67;3.80;;;;;;;;;;4740003;30;20089;-92
2024/01/02 01:18:52;;;;;;;12.93;3.80;;;;;;;;;;4738040;30;20071;-92
2024/01/02 01:21:19;;;;;;;8.98;2.90;;;;;;;;;;4750407;30;20087;-92
2024/01/02 01:23:45;;;;;;;4.07;2.60;;;;;;;;;;4763236;30;20142;-93
2024/01/02 01:26:11;;;;;;;8.15;3.75;;;;;;;;;;4743698;30;20071;-93
2024/01/02 01:28:37;;;;;;;9.68;3.17;;;;;;;;;;4744622;30;20048;-94
2024/01/02 01:31:03;;;;;;;13.18;3.50;;;;;;;;;;4741902;30;20048;-94
2024/01/02 01:33:29;;;;;;;14.75;3.72;;;;;;;;;;4731039;30;20113;-91
2024/01/02 01:35:55;;;;;;;8.10;2.88;;;;;;;;;;4752589;30;20067;-93
2024/01/02 01:42:05;;;;;;;8.57;3.42;;;;;;;;;;4780913;30;20499;-94
2024/01/02 01:44:39;;;;;;;8.40;3.42;;;;;;;;;;4747118;24;20060;-94
2024/01/02 01:47:06;;;;;;;8.52;3.10;;;;;;;;;;4715848;30;20076;-92
2024/01/02 01:53:15;;;;;;;7.97;3.58;;;;;;;;;;4743400;30;20052;-92
2024/01/02 01:59:10;;;;;;;8.43;2.22;;;;;;;;;;4743812;30;20047;-92
2024/01/02 02:01:37;;;;;;;4.88;2.47;;;;;;;;;;4699526;30;20056;-92
2024/01/02 02:04:06;;;;;;;18.40;3.40;;;;;;;;;;4753375;24;20079;-91
2024/01/02 02:06:33;;;;;;;8.02;3.53;;;;;;;;;;4767676;30;20105;-92
2024/01/02 02:09:02;;;;;;;12.07;3.10;;;;;;;;;;4768740;30;20084;-91
2024/01/02 02:11:33;;;;;;;12.25;3.30;;;;;;;;;;4791743;30;20047;-93
2024/01/02 02:13:59;;;;;;;8.48;2.80;;;;;;;;;;4765238;30;20056;-93
2024/01/02 02:16:26;;;;;;;11.02;2.90;;;;;;;;;;4763512;30;20056;-93
2024/01/02 02:18:52;;;;;;;6.20;3.10;;;;;;;;;;4753367;30;20226;-91
2024/01/02 02:21:19;;;;;;;6.57;2.80;;;;;;;;;;4736628;30;20064;-92
2024/01/02 02:23:46;;;;;;;6.75;2.65;;;;;;;;;;4721593;30;20056;-92
2024/01/02 02:26:18;;;;;;;7.30;3.17;;;;;;;;;;4753030;30;20161;-92
2024/01/02 02:28:46;;;;;;;8.77;2.72;;;;;;;;;;4738900;30;20131;-92
2024/01/02 02:34:36;;;;;;;12.75;3.90;;;;;;;;;;4768822;30;20050;-92
2024/01/02 02:37:10;;;;;;;3.33;2.50;;;;;;;;;;4740019;30;20117;-91
2024/01/02 02:39:37;;;;;;;10.60;2.97;;;;;;;;;;4754055;30;20119;-91
2024/01/02 02:42:03;;;;;;;9.50;2.88;;;;;;;;;;4753581;30;20098;-91
2024/01/02 02:44:29;;;;;;;6.35;2.28;;;;;;;;;;4735706;30;20142;-91
2024/01/02 02:46:55;;;;;;;10.63;3.40;;;;;;;;;;4774698;30;20051;-91
2024/01/02 02:49:21;;;;;;;5.47;3.25;;;;;;;;;;4759808;30;20089;-91
2024/01/02 02:51:47;;;;;;;12.40;3.47;;;;;;;;;;4756849;30;20091;-91
2024/01/02 02:54:20;;;;;;;3.85;2.70;;;;;;;;;;4809793;24;20124;-91
2024/01/02 02:56:52;;;;;;;6.20;3.40;;;;;;;;;;4738205;30;20060;-91
2024/01/02 02:59:23;;;;;;;4.50;3.30;;;;;;;;;;4753529;30;20460;-92
2024/01/02 03:01:50;;;;;;;8.82;3.83;;;;;;;;;;4751831;30;20056;-91
2024/01/02 03:07:41;;;;;;;10.52;3.45;;;;;;;;;;4766706;30;20044;-91
2024/01/02 03:10:10;;;;;;;6.57;4.00;;;;;;;;;;4736252;30;20082;-91
2024/01/02 03:12:48;;;;;;;6.75;4.25;;;;;;;;;;4750681;30;20056;-92
2024/01/02 03:18:57;;;;;;;3.58;2.90;;;;;;;;;;4765633;30;20520;-92
2024/01/02 03:21:27;;;;;;;9.20;3.47;;;;;;;;;;4735610;30;20060;-91
2024/01/02 03:24:02;;;;;;;3.95;3.00;;;;;;;;;;4736405;30;20056;-93
2024/01/02 03:26:46;;;;;;;8.52;3.55;;;;;;;;;;4734636;30;20061;-92
2024/01/02 03:29:16;;;;;;;4.90;3.47;;;;;;;;;;4704796;30;20056;-91
2024/01/02 03:31:44;;;;;;;5.18;3.13;;;;;;;;;;4719091;30;20057;-91
2024/01/02 03:34:12;;;;;;;9.43;3.85;;;;;;;;;;4718632;30;20077;-92
2024/01/02 03:36:38;;;;;;;7.95;3.75;;;;;;;;;;4719944;30;20119;-91
2024/01/02 03:39:04;;;;;;;12.18;3.90;;;;;;;;;;4708379;30;20056;-91
2024/01/02 03:41:30;;;;;;;7.78;4.20;;;;;;;;;;4722357;30;20052;-91
2024/01/02 03:43:56;;;;;;;7.80;3.83;;;;;;;;;;4708576;30;20036;-91
2024/01/02 03:50:36;;;;;;;5.43;3.63;;;;;;;;;;4754836;30;20067;-91
2024/01/02 03:53:12;;;;;;;9.80;3.72;;;;;;;;;;4724811;30;20135;-90
2024/01/02 03:55:41;;;;;;;7.80;3.72;;;;;;;;;;4738834;30;20044;-91
2024/01/02 03:58:22;;;;;;;7.45;4.22;;;;;;;;;;4739070;30;20087;-91
2024/01/02 04:00:59;;;;;;;7.15;3.15;;;;;;;;;;4753789;30;20053;-91
2024/01/02 04:03:28;;;;;;;3.85;3.00;;;;;;;;;;4709988;30;20067;-91
2024/01/02 04:05:54;;;;;;;5.20;3.80;;;;;;;;;;4709974;30;20235;-91
2024/01/02 04:08:27;;;;;;;5.28;3.17;;;;;;;;;;4738860;30;20060;-91
2024/01/02 04:10:53;;;;;;;6.00;3.55;;;;;;;;;;4722236;30;20057;-91
2024/01/02 04:13:25;;;;;;;14.00;3.85;;;;;;;;;;4700798;30;20057;-91
2024/01/02 04:15:52;;;;;;;7.53;3.45;;;;;;;;;;4673078;30;20523;-91
2024/01/02 04:22:11;;;;;;;6.45;3.83;;;;;;;;;;4714660;30;20092;-92
2024/01/02 04:28:02;;;;;;;12.55;3.67;;;;;;;;;;4790357;30;20050;-91
2024/01/02 04:30:48;;;;;;;3.88;3.53;;;;;;;;;;4774594;30;20062;-91
2024/01/02 04:36:44;;;;;;;8.95;4.10;;;;;;;;;;4790169;30;20091;-91
2024/01/02 04:39:29;;;;;;;9.98;3.90;;;;;;;;;;4775925;30;20117;-91
2024/01/02 04:45:20;;;;;;;8.55;3.35;;;;;;;;;;4913007;24;20186;-91
2024/01/02 04:47:49;;;;;;;6.50;4.20;;;;;;;;;;4767850;30;20557;-91
2024/01/02 04:53:58;;;;;;;5.95;3.33;;;;;;;;;;4770638;30;20071;-91
2024/01/02 04:56:43;;;;;;;4.60;3.10;;;;;;;;;;4753362;30;20087;-90
2024/01/02 04:59:09;;;;;;;4.05;3.28;;;;;;;;;;4750856;30;20154;-91
2024/01/02 05:01:37;;;;;;;7.03;3.22;;;;;;;;;;4751110;30;20091;-90
2024/01/02 05:04:13;;;;;;;3.95;3.10;;;;;;;;;;4765958;30;20059;-91
2024/01/02 05:06:49;;;;;;;5.30;2.83;;;;;;;;;;4736895;30;20067;-91
2024/01/02 05:12:58;;;;;;;3.15;2.38;;;;;;;;;;4811419;24;20050;-91
2024/01/02 05:15:24;;;;;;;6.63;3.17;;;;;;;;;;4787863;29;20491;-93
2024/01/02 05:18:06;;;;;;;3.60;2.38;;;;;;;;;;4773486;29;20100;-91
2024/01/02 05:20:36;;;;;;;7.25;2.85;;;;;;;;;;4818976;29;20057;-91
2024/01/02 05:23:05;;;;;;;3.88;2.30;;;;;;;;;;4766815;24;20055;-91
2024/01/02 05:25:52;;;;;;;3.28;1.95;;;;;;;;;;4770080;30;20059;-91
2024/01/02 05:28:24;;;;;;;4.18;2.13;;;;;;;;;;4739256;30;20063;-91
2024/01/02 05:31:10;;;;;;;4.95;3.00;;;;;;;;;;4755699;30;20145;-92
2024/01/02 05:33:38;;;;;;;5.05;2.05;;;;;;;;;;4764229;30;20064;-90
2024/01/02 05:36:04;;;;;;;4.90;2.10;;;;;;;;;;4750634;30;20062;-92
2024/01/02 05:38:31;;;;;;;4.47;2.00;;;;;;;;;;4765162;24;20091;-92
2024/01/02 05:40:57;;;;;;;2.03;1.52;;;;;;;;;;4724478;30;20060;-93
2024/01/02 05:43:23;;;;;;;2.78;1.98;;;;;;;;;;4724856;30;20064;-92
2024/01/02 05:45:50;;;;;;;5.18;2.83;;;;;;;;;;4748615;30;20498;-91
2024/01/02 05:48:16;;;;;;;4.18;1.95;;;;;;;;;;4747153;30;20398;-91
2024/01/02 05:50:42;;;;;;;2.33;2.03;;;;;;;;;;4721030;30;20063;-91
2024/01/02 05:53:09;;;;;;;4.43;1.85;;;;;;;;;;4719444;30;20082;-91
2024/01/02 05:55:37;;;;;;;1.83;1.58;;;;;;;;;;4751028;30;20091;-91
2024/01/02 06:01:49;;;;;;;2.25;2.05;;;;;;;;;;4768067;30;20139;-91
2024/01/02 06:04:18;;;;;;;7.38;2.05;;;;;;;;;;4750646;30;20052;-91
2024/01/02 06:06:44;;;;;;;1.80;1.55;;;;;;;;;;4762212;24;20058;-91
2024/01/02 06:12:53;;;;;;;1.50;1.40;;;;;;;;;;4784746;30;20185;-92
2024/01/02 06:15:26;;;;;;;1.67;1.58;;;;;;;;;;4740743;30;20172;-91
2024/01/02 06:17:53;;;;;;;1.27;1.23;;;;;;;;;;4740523;30;20136;-91
2024/01/02 06:20:20;;;;;;;1.10;1.08;;;;;;;;;;4768255;30;20138;-91
2024/01/02 06:22:53;;;;;;;1.13;1.00;;;;;;;;;;4753723;30;20072;-91
2024/01/02 06:25:33;;;;;;;1.38;1.27;;;;;;;;;;4769270;30;20487;-92
2024/01/02 06:28:00;;;;;;;1.10;1.10;;;;;;;;;;4753385;30;20052;-92
2024/01/02 06:30:48;;;;;;;1.20;1.10;;;;;;;;;;4777360;24;20058;-92
2024/01/02 06:33:17;;;;;;;1.58;1.27;;;;;;;;;;4782292;30;20108;-92
2024/01/02 06:35:58;;;;;;;1.80;1.38;;;;;;;;;;4785059;30;20059;-92
2024/01/02 06:38:44;;;;;;;0.95;0.90;;;;;;;;;;4799830;30;20050;-93
2024/01/02 06:44:51;;;;;;;1.02;1.02;;;;;;;;;;4799781;30;20142;-92
2024/01/02 06:47:27;;;;;;;0.95;0.95;;;;;;;;;;4775722;30;20064;-92
2024/01/02 06:49:55;;;;;;;1.15;1.10;;;;;;;;;;4776681;24;20131;-92
2024/01/02 06:52:22;;;;;;;1.40;1.30;;;;;;;;;;4749590;30;20578;-92
2024/01/02 07:10:13;;;;;;;1.40;1.30;;;6.70;99.90;;;;;;4780061;24;20055;-95
2024/01/02 07:12:42;;;;;;;1.17;1.08;;;;;;;;;;4723434;30;20521;-96
2024/01/02 07:15:17;;;;;;;0.77;0.77;;;;;;;;;;4724647;30;20048;-95
2024/01/02 07:17:57;;;;;;;1.02;1.02;;;;;;;;;;4738195;30;20056;-95
2024/01/02 07:30:20;;;;;;;1.00;1.00;;;;;;;;;;4754568;30;20062;-96
2024/01/02 07:33:06;;;;;;;0.82;0.80;;;;;;;;;;4764685;24;20140;-96
2024/01/02 07:42:08;;;;;;;1.10;1.00;;;;;;;;;;4786730;30;20112;-95
2024/01/02 07:44:40;;;;;;;1.15;1.10;;;;;;;;;;4769284;30;20060;-95
2024/01/02 07:47:10;;;;;;;1.67;1.58;;;;;;;;;;4755830;30;20051;-95
2024/01/02 07:49:36;;;;;;;1.63;1.50;;;;;;;;;;4755502;30;20062;-96
2024/01/02 07:52:02;;;;;;;1.30;1.20;;;;;;;;;;4750931;30;20094;-95
2024/01/02 07:54:41;;;;;;;;;;;;;;;;;;;;;
2024/01/02 07:57:07;;;;;;;1.10;1.10;;;;;;;;;;4740282;30;20135;-96
2024/01/02 07:59:44;;;;;;;1.52;1.42;;;;;;;;;;4754503;30;20075;-94
2024/01/02 08:02:10;;;;;;;1.70;1.60;;;;;;;;;;4723578;30;20139;-95
2024/01/02 08:04:48;;;;;;;;;;;;;;;;;;;;;
2024/01/02 08:07:32;;;;;;;2.10;1.90;;;;;;;;;;4806817;30;20051;-94
2024/01/02 08:10:10;;;;;;;1.73;1.63;;;;;;;;;;4790967;30;20105;-96
2024/01/02 08:12:47;;;;;;;1.80;1.70;;;;;;;;;;4777198;30;20060;-96
2024/01/02 08:15:19;;;;;;;2.30;2.10;;;;;;;;;;4776329;30;20062;-96
2024/01/02 14:32:24;;;;;;;30.42;6.65;;;;;;;;;;4328589;24;20053;31
2024/01/02 14:35:11;;;;;;;29.67;7.07;;;;;;;;;;4721080;30;20057;-96
2024/01/02 14:38:03;;;;;;;32.22;7.68;;;;;;;;;;4720223;30;20207;-95
2024/01/02 14:40:31;;;;;;;33.97;7.70;;;;;;;;;;4735288;30;20075;-96
2024/01/02 14:43:04;;;;;;;31.00;5.88;;;;;;;;;;4722931;30;20091;-96
2024/01/02 14:45:50;;;;;;;26.20;6.80;;;;;;;;;;4723962;30;20056;-95
2024/01/02 14:48:37;;;;;;;34.05;7.57;;;;;;;;;;4740073;30;20052;-96
2024/01/02 14:51:43;;;;;;;30.25;6.57;;;;;;;;;;4724727;30;20052;-95
2024/01/02 14:54:42;;;;;;;31.10;7.57;;;;;;;;;;4725975;30;20059;-95
2024/01/02 14:57:27;;;;;;;28.52;7.82;;;;;;;;;;4721895;30;20056;-96
2024/01/02 15:00:10;;;;;;;33.67;6.93;;;;;;;;;;4712028;30;20079;-94
2024/01/02 15:02:39;;;;;;;29.85;7.93;;;;;;;;;;4711856;30;20048;-95
2024/01/02 15:05:07;;;;;;;18.88;7.05;;;;;;;;;;4725468;30;20071;-95
2024/01/02 15:08:05;;;;;;;28.23;7.97;;;;;;;;;;4725588;30;20057;-95
2024/01/02 15:10:47;;;;;;;19.55;6.00;;;;;;;;;;4709389;30;20053;-95
2024/01/02 15:13:25;;;;;;;19.10;6.10;;;;;;;;;;4725358;30;20052;-96
2024/01/02 15:16:04;;;;;;;38.75;6.78;;;;;;;;;;4711096;30;20061;-95
2024/01/02 15:18:52;;;;;;;17.10;5.75;;;;;;;;;;4725909;30;20049;-95
2024/01/02 15:21:22;;;;;;;14.13;5.03;;;;;;;;;;4709953;30;20064;-95
2024/01/02 15:24:11;;;;;;;19.17;5.03;;;;;;;;;;4725822;30;20418;-95
2024/01/02 15:26:40;;;;;;;14.27;5.15;;;;;;;;;;4725637;30;20386;-95
2024/01/02 15:29:11;;;;;;;18.85;5.45;;;;;;;;;;4710564;30;20052;-96
2024/01/02 15:32:06;;;;;;;14.65;4.75;;;;;;;;;;4726663;30;20060;-96
2024/01/02 15:34:51;;;;;;;;;;;;;;;;;;;;;
2024/01/02 15:37:29;;;;;;;11.05;3.88;;;;;;;;;;4732143;30;20064;-93
2024/01/02 15:40:02;;;;;;;9.23;3.88;;;;;;;;;;4715785;30;20088;-95
2024/01/02 15:42:32;;;;;;;9.20;4.03;;;;;;;;;;4715222;30;20431;-95
2024/01/02 15:45:21;;;;;;;11.15;4.25;;;;;;;;;;4730106;30;20063;-94
2024/01/02 15:48:13;;;;;;;11.50;4.53;;;;;;;;;;4729491;30;20068;-94
2024/01/02 15:50:42;;;;;;;15.63;4.60;;;;;;;;;;4730641;30;20052;-94
2024/01/02 15:53:14;;;;;;;10.68;4.35;;;;;;;;;;4715446;30;20423;-94
2024/01/02 15:55:43;;;;;;;11.27;4.63;;;;;;;;;;4730489;30;20122;-94
2024/01/02 16:02:16;;;;;;;16.25;4.22;;;;;;;;;;4743105;30;20055;-94
2024/01/02 16:05:11;;;;;;;11.20;4.57;;;10.20;99.90;;;;;;4728722;30;20056;-93
2024/01/02 16:08:01;;;;;;;10.90;5.25;;;;;;;;;;4728556;24;20044;-94
2024/01/02 16:10:45;;;;;;;13.05;5.78;;;;;;;;;;4731646;30;20495;-93
2024/01/02 16:13:15;;;;;;;9.52;5.30;;;;;;;;;;4731901;30;20052;-94
2024/01/02 16:15:46;;;;;;;8.77;5.20;;;;;;;;;;4732858;30;20052;-94
2024/01/02 16:18:22;;;;;;;8.70;3.80;;;;;;;;;;4747092;30;20482;-95
2024/01/02 16:21:06;;;;;;;9.15;4.53;;;;;;;;;;4760873;24;20048;-93
2024/01/02 16:23:39;;;;;;;6.72;4.22;;;;;;;;;;4734879;30;20060;-94
2024/01/02 16:26:57;;;;;;;6.70;4.70;;;10.20;99.90;;;;;;4757415;24;20060;-95
2024/01/02 16:29:46;;;;;;;9.07;3.92;;;;;;;;;;4726504;30;20064;-95
2024/01/02 16:32:28;;;;;;;5.45;3.58;;;;;;;;;;4736803;30;20052;-94
2024/01/02 16:39:16;;;;;;;3.15;2.80;;;10.30;99.90;;;;;;4765739;30;20334;-95
2024/01/02 16:42:02;;;;;;;3.55;2.83;;;;;;;;;;4736279;30;20056;-94
2024/01/02 16:44:36;;;;;;;2.92;2.22;;;;;;;;;;4745637;30;20067;-95
2024/01/02 16:47:28;;;;;;;2.20;2.00;;;;;;;;;;4732384;30;20056;-96
2024/01/02 16:50:04;;;;;;;2.65;1.95;;;;;;;;;;4734384;30;20052;-95
2024/01/02 16:52:36;;;;;;;2.65;2.42;;;;;;;;;;4747582;30;20052;-96
2024/01/02 16:55:07;;;;;;;3.47;2.17;;;;;;;;;;4733055;30;20094;-95
2024/01/02 16:57:36;;;;;;;3.45;2.17;;;;;;;;;;4718346;30;20068;-95
2024/01/02 17:03:37;;;;;;;2.33;2.13;;;;;;;;;;4760304;30;20130;-95
2024/01/02 17:06:12;;;;;;;2.83;2.28;;;;;;;;;;4743731;30;20080;-95
2024/01/02 17:12:28;;;;;;;2.67;1.67;;;;;;;;;;4758921;30;20051;-96
2024/01/02 17:15:19;;;;;;;3.17;1.70;;;;;;;;;;4729667;30;20066;-96
2024/01/02 17:17:54;;;;;;;1.95;1.50;;;;;;;;;;4864709;24;20135;-94
2024/01/02 17:20:30;;;;;;;2.25;1.60;;;;;;;;;;4770735;24;20052;-94
2024/01/02 17:22:57;;;;;;;1.33;1.23;;;;;;;;;;4726799;30;20118;-94
2024/01/02 17:29:06;;;;;;;2.08;1.52;;;;;;;;;;4720801;30;20061;-95
2024/01/02 17:37:51;;;;;;;1.77;1.50;;;;;;;;;;4639672;30;20065;-96
2024/01/02 17:44:05;;;;;;;;;;;;;;;;;;;;;
2024/01/02 17:47:15;;;;;;;;;;;;;;;;;;;;;
2024/01/02 21:48:29;;;;;;;8.05;2.53;;;;;;;;;;4810251;24;20417;-94
2024/01/02 22:17:46;;;;;;;8.55;1.90;;;;;;;;;;4988681;24;20119;-96
2024/01/02 23:57:30;;;;;;;8.77;2.47;;;;;;;;;;1585462;24;20049;-91
